createdAt,value
2022-08-29T00:00:59.920Z,98863.00
2022-08-29T00:03:30.850Z,98870.00
2022-08-29T00:06:04.640Z,98874.00
2022-08-29T00:08:35.518Z,98870.00
2022-08-29T00:11:08.043Z,98867.00
2022-08-29T00:13:39.131Z,98865.00
2022-08-29T00:16:10.701Z,98883.00
2022-08-29T00:18:42.031Z,98875.00
2022-08-29T00:21:13.094Z,98877.00
2022-08-29T00:23:47.156Z,98875.00
2022-08-29T00:26:18.167Z,98878.00
2022-08-29T00:28:49.149Z,98877.00
2022-08-29T00:31:20.083Z,98876.00
2022-08-29T00:33:51.303Z,98872.00
2022-08-29T00:36:22.932Z,98890.00
2022-08-29T00:38:54.204Z,98872.00
2022-08-29T00:41:25.622Z,98872.00
2022-08-29T00:43:56.654Z,98876.00
2022-08-29T00:46:43.007Z,98873.00
2022-08-29T00:49:46.190Z,98878.00
2022-08-29T00:52:23.236Z,98883.00
2022-08-29T00:54:55.975Z,98881.00
2022-08-29T00:57:31.646Z,98886.00
2022-08-29T01:00:05.825Z,98882.00
2022-08-29T01:02:40.736Z,98891.00
2022-08-29T01:05:19.942Z,98894.00
2022-08-29T01:07:52.062Z,98898.00
2022-08-29T01:10:41.948Z,98896.00
2022-08-29T01:13:13.834Z,98893.00
2022-08-29T01:15:46.579Z,98893.00
2022-08-29T01:18:18.764Z,98890.00
2022-08-29T01:21:20.003Z,98895.00
2022-08-29T01:24:38.667Z,98898.00
2022-08-29T01:27:12.496Z,98898.00
2022-08-29T01:29:43.428Z,98895.00
2022-08-29T01:32:14.666Z,98896.00
2022-08-29T01:34:46.033Z,98895.00
2022-08-29T01:37:17.554Z,98895.00
2022-08-29T01:39:48.515Z,98893.00
2022-08-29T01:42:22.658Z,98894.00
2022-08-29T01:44:57.063Z,98900.00
2022-08-29T01:47:34.315Z,98901.00
2022-08-29T01:50:12.833Z,98899.00
2022-08-29T01:52:43.927Z,98894.00
2022-08-29T01:55:15.019Z,98894.00
2022-08-29T01:57:45.914Z,98898.00
2022-08-29T02:00:18.367Z,98902.00
2022-08-29T02:02:49.299Z,98903.00
2022-08-29T02:05:23.017Z,98899.00
2022-08-29T02:07:54.295Z,98897.00
2022-08-29T02:10:25.569Z,98898.00
2022-08-29T02:12:57.064Z,98919.00
2022-08-29T02:15:28.000Z,98888.00
2022-08-29T02:17:58.844Z,98896.00
2022-08-29T02:20:29.782Z,98891.00
2022-08-29T02:23:01.052Z,98898.00
2022-08-29T02:25:44.169Z,98899.00
2022-08-29T02:28:17.145Z,98901.00
2022-08-29T02:30:52.125Z,98895.00
2022-08-29T02:33:28.982Z,98895.00
2022-08-29T02:36:00.280Z,98894.00
2022-08-29T02:38:32.389Z,98890.00
2022-08-29T02:41:03.424Z,98888.00
2022-08-29T02:43:34.595Z,98900.00
2022-08-29T02:46:06.458Z,98889.00
2022-08-29T02:48:37.357Z,98891.00
2022-08-29T02:51:08.245Z,98892.00
2022-08-29T02:53:39.184Z,98895.00
2022-08-29T02:56:10.188Z,98879.00
2022-08-29T02:58:45.561Z,98887.00
2022-08-29T03:01:21.288Z,98894.00
2022-08-29T03:03:52.890Z,98893.00
2022-08-29T03:06:23.931Z,98893.00
2022-08-29T03:08:54.998Z,98885.00
2022-08-29T03:11:28.723Z,98882.00
2022-08-29T03:13:59.581Z,98886.00
2022-08-29T03:16:30.966Z,98894.00
2022-08-29T03:19:01.870Z,98883.00
2022-08-29T03:21:33.402Z,98891.00
2022-08-29T03:24:04.562Z,98884.00
2022-08-29T03:26:35.463Z,98888.00
2022-08-29T03:29:06.507Z,98885.00
2022-08-29T03:31:37.491Z,98892.00
2022-08-29T03:34:08.677Z,98883.00
2022-08-29T03:36:39.590Z,98882.00
2022-08-29T03:39:10.627Z,98884.00
2022-08-29T03:41:41.583Z,98895.00
2022-08-29T03:44:12.886Z,98893.00
2022-08-29T03:46:44.129Z,98898.00
2022-08-29T03:49:15.669Z,98902.00
2022-08-29T03:51:46.587Z,98900.00
2022-08-29T03:54:17.754Z,98902.00
2022-08-29T03:56:49.332Z,98896.00
2022-08-29T03:59:20.520Z,98925.00
2022-08-29T04:01:51.639Z,98905.00
2022-08-29T04:04:41.250Z,98897.00
2022-08-29T04:07:14.928Z,98896.00
2022-08-29T04:09:45.860Z,98899.00
2022-08-29T04:12:16.932Z,98897.00
2022-08-29T04:14:47.844Z,98897.00
2022-08-29T04:17:19.036Z,98899.00
2022-08-29T04:19:50.213Z,98909.00
2022-08-29T04:22:21.944Z,98907.00
2022-08-29T04:24:53.499Z,98905.00
2022-08-29T04:27:24.919Z,98912.00
2022-08-29T04:29:55.801Z,98916.00
2022-08-29T04:32:27.553Z,98917.00
2022-08-29T04:34:59.305Z,98914.00
2022-08-29T04:37:30.487Z,98927.00
2022-08-29T04:40:02.073Z,98921.00
2022-08-29T04:42:35.962Z,98924.00
2022-08-29T04:45:09.864Z,98926.00
2022-08-29T04:47:42.924Z,98924.00
2022-08-29T04:50:18.350Z,98923.00
2022-08-29T04:52:52.001Z,98924.00
2022-08-29T04:55:25.508Z,98924.00
2022-08-29T04:57:57.100Z,98916.00
2022-08-29T05:00:30.408Z,98921.00
2022-08-29T05:03:01.796Z,98918.00
2022-08-29T05:05:32.715Z,98930.00
2022-08-29T05:08:04.123Z,98935.00
2022-08-29T05:10:35.060Z,98927.00
2022-08-29T05:13:05.949Z,98934.00
2022-08-29T05:15:39.132Z,98937.00
2022-08-29T05:18:09.990Z,98934.00
2022-08-29T05:20:43.223Z,98935.00
2022-08-29T05:23:15.893Z,98937.00
2022-08-29T05:25:56.874Z,98940.00
2022-08-29T05:28:30.545Z,98945.00
2022-08-29T05:31:02.117Z,98935.00
2022-08-29T05:33:33.582Z,98945.00
2022-08-29T05:36:04.856Z,98950.00
2022-08-29T05:38:35.711Z,98942.00
2022-08-29T05:41:07.661Z,98937.00
2022-08-29T05:43:38.575Z,98944.00
2022-08-29T05:46:10.692Z,98940.00
2022-08-29T05:48:42.422Z,98947.00
2022-08-29T05:51:21.767Z,98938.00
2022-08-29T05:53:52.653Z,98954.00
2022-08-29T05:56:26.475Z,98943.00
2022-08-29T05:58:57.352Z,98944.00
2022-08-29T06:01:32.933Z,98951.00
2022-08-29T06:04:04.314Z,98958.00
2022-08-29T06:06:35.393Z,98956.00
2022-08-29T06:09:08.759Z,98967.00
2022-08-29T06:11:39.796Z,98968.00
2022-08-29T06:14:10.692Z,98963.00
2022-08-29T06:16:41.903Z,98968.00
2022-08-29T06:19:13.328Z,98968.00
2022-08-29T06:21:44.178Z,98973.00
2022-08-29T06:24:16.057Z,98976.00
2022-08-29T06:26:46.956Z,98973.00
2022-08-29T06:29:17.943Z,98977.00
2022-08-29T06:31:48.836Z,98971.00
2022-08-29T06:34:19.775Z,98975.00
2022-08-29T06:36:51.436Z,98968.00
2022-08-29T06:39:22.749Z,98974.00
2022-08-29T06:41:53.609Z,98981.00
2022-08-29T06:44:24.841Z,98979.00
2022-08-29T06:46:55.698Z,98980.00
2022-08-29T06:49:27.767Z,98986.00
2022-08-29T06:51:59.387Z,98996.00
2022-08-29T06:54:30.411Z,98994.00
2022-08-29T06:57:01.392Z,98985.00
2022-08-29T06:59:32.308Z,98974.00
2022-08-29T07:02:03.336Z,98983.00
2022-08-29T07:04:34.272Z,98982.00
2022-08-29T07:07:06.093Z,98989.00
2022-08-29T07:09:37.140Z,98986.00
2022-08-29T07:12:08.143Z,98984.00
2022-08-29T07:14:39.040Z,98989.00
2022-08-29T07:17:09.921Z,98982.00
2022-08-29T07:19:41.138Z,98986.00
2022-08-29T07:22:12.076Z,98990.00
2022-08-29T07:24:43.012Z,98990.00
2022-08-29T07:27:15.235Z,98990.00
2022-08-29T07:29:50.129Z,98983.00
2022-08-29T07:32:25.669Z,98983.00
2022-08-29T07:34:56.818Z,98994.00
2022-08-29T07:37:27.775Z,98987.00
2022-08-29T07:39:59.656Z,98992.00
2022-08-29T07:42:30.630Z,98995.00
2022-08-29T07:45:01.773Z,99002.00
2022-08-29T07:47:32.993Z,99003.00
2022-08-29T07:50:07.704Z,99004.00
2022-08-29T07:52:38.633Z,98997.00
2022-08-29T07:55:10.265Z,98997.00
2022-08-29T07:57:41.228Z,98998.00
2022-08-29T08:00:12.610Z,98997.00
2022-08-29T08:02:43.485Z,98994.00
2022-08-29T08:05:14.417Z,98992.00
2022-08-29T08:07:45.933Z,98991.00
2022-08-29T08:10:20.303Z,98993.00
2022-08-29T08:12:51.742Z,98993.00
2022-08-29T08:15:22.919Z,99005.00
2022-08-29T08:17:53.772Z,99007.00
2022-08-29T08:20:24.801Z,99018.00
2022-08-29T08:22:55.668Z,99007.00
2022-08-29T08:25:27.034Z,99004.00
2022-08-29T08:27:58.888Z,99001.00
2022-08-29T08:30:33.783Z,99003.00
2022-08-29T08:33:06.735Z,99007.00
2022-08-29T08:35:46.936Z,99004.00
2022-08-29T08:38:18.784Z,99003.00
2022-08-29T08:41:27.310Z,99007.00
2022-08-29T08:44:07.297Z,99002.00
2022-08-29T08:46:43.309Z,99004.00
2022-08-29T08:50:06.788Z,98996.00
2022-08-29T08:52:46.032Z,98999.00
2022-08-29T08:55:56.155Z,99020.00
2022-08-29T08:58:53.763Z,99005.00
2022-08-29T09:01:27.859Z,99014.00
2022-08-29T09:04:35.519Z,99000.00
2022-08-29T09:07:46.760Z,99002.00
2022-08-29T09:10:43.562Z,98991.00
2022-08-29T09:13:50.579Z,98996.00
2022-08-29T09:16:42.940Z,99000.00
2022-08-29T09:19:17.374Z,99014.00
2022-08-29T09:22:01.137Z,98992.00
2022-08-29T09:24:53.953Z,98992.00
2022-08-29T09:27:30.022Z,98997.00
2022-08-29T09:30:24.682Z,98997.00
2022-08-29T09:33:09.232Z,99002.00
2022-08-29T09:35:47.398Z,98993.00
2022-08-29T09:38:18.193Z,98994.00
2022-08-29T09:41:07.958Z,98991.00
2022-08-29T09:43:41.483Z,98994.00
2022-08-29T09:46:23.361Z,98987.00
2022-08-29T09:49:14.102Z,98986.00
2022-08-29T09:51:48.744Z,98987.00
2022-08-29T09:54:32.362Z,98991.00
2022-08-29T09:57:14.508Z,98987.00
2022-08-29T10:00:10.340Z,98991.00
2022-08-29T10:02:50.742Z,98992.00
2022-08-29T10:05:56.351Z,98988.00
2022-08-29T10:08:38.108Z,98986.00
2022-08-29T10:11:44.094Z,98987.00
2022-08-29T10:14:30.103Z,98977.00
2022-08-29T10:17:43.441Z,98982.00
2022-08-29T10:20:14.665Z,98989.00
2022-08-29T10:23:20.468Z,98985.00
2022-08-29T10:25:51.831Z,98997.00
2022-08-29T10:28:48.152Z,98994.00
2022-08-29T10:32:04.791Z,98997.00
2022-08-29T10:35:22.474Z,98989.00
2022-08-29T10:38:33.957Z,98992.00
2022-08-29T10:41:54.010Z,98986.00
2022-08-29T10:44:50.446Z,98979.00
2022-08-29T10:47:40.274Z,99003.00
2022-08-29T10:50:45.769Z,98975.00
2022-08-29T10:53:37.734Z,98986.00
2022-08-29T10:56:27.670Z,98986.00
2022-08-29T10:59:21.625Z,98976.00
2022-08-29T11:02:01.273Z,98980.00
2022-08-29T11:04:46.203Z,98974.00
2022-08-29T11:07:29.402Z,98977.00
2022-08-29T11:10:18.515Z,98970.00
2022-08-29T11:13:10.640Z,98970.00
2022-08-29T11:16:12.191Z,98968.00
2022-08-29T11:18:50.998Z,98961.00
2022-08-29T11:21:45.952Z,98951.00
2022-08-29T11:24:21.058Z,98951.00
2022-08-29T11:28:01.546Z,98952.00
2022-08-29T11:31:00.621Z,98947.00
2022-08-29T11:34:34.123Z,98950.00
2022-08-29T11:37:54.089Z,98950.00
2022-08-29T11:41:28.274Z,98949.00
2022-08-29T11:44:37.544Z,98944.00
2022-08-29T11:47:40.857Z,98954.00
2022-08-29T11:50:15.356Z,98947.00
2022-08-29T11:53:16.867Z,98937.00
2022-08-29T11:56:12.774Z,98931.00
2022-08-29T11:58:50.563Z,98935.00
2022-08-29T12:01:37.894Z,98935.00
2022-08-29T12:04:11.659Z,98926.00
2022-08-29T12:07:01.489Z,98921.00
2022-08-29T12:10:14.062Z,98922.00
2022-08-29T12:12:51.259Z,98912.00
2022-08-29T12:15:27.989Z,98922.00
2022-08-29T12:18:22.136Z,98920.00
2022-08-29T12:20:55.689Z,98922.00
2022-08-29T12:23:35.353Z,98919.00
2022-08-29T12:26:44.886Z,98913.00
2022-08-29T12:29:44.780Z,98919.00
2022-08-29T12:32:41.221Z,98911.00
2022-08-29T12:35:38.380Z,98910.00
2022-08-29T12:38:27.087Z,98910.00
2022-08-29T12:41:27.605Z,98898.00
2022-08-29T12:44:03.953Z,98907.00
2022-08-29T12:46:40.965Z,98905.00
2022-08-29T12:49:30.793Z,98897.00
2022-08-29T12:52:07.403Z,98895.00
2022-08-29T12:54:42.007Z,98897.00
2022-08-29T12:57:22.232Z,98894.00
2022-08-29T12:59:55.054Z,98899.00
2022-08-29T13:02:35.062Z,98898.00
2022-08-29T13:05:28.238Z,98881.00
2022-08-29T13:08:16.062Z,98879.00
2022-08-29T13:11:13.474Z,98880.00
2022-08-29T13:13:44.436Z,98871.00
2022-08-29T13:16:35.865Z,98868.00
2022-08-29T13:19:20.724Z,98868.00
2022-08-29T13:22:02.931Z,98859.00
2022-08-29T13:24:33.905Z,98868.00
2022-08-29T13:27:09.157Z,98880.00
2022-08-29T13:29:43.318Z,98871.00
2022-08-29T13:32:18.923Z,98862.00
2022-08-29T13:35:15.511Z,98870.00
2022-08-29T13:38:18.429Z,98872.00
2022-08-29T13:40:58.383Z,98862.00
2022-08-29T13:43:43.315Z,98863.00
2022-08-29T13:46:25.807Z,98865.00
2022-08-29T13:49:03.045Z,98868.00
2022-08-29T13:51:33.958Z,98865.00
2022-08-29T13:54:04.908Z,98862.00
2022-08-29T13:59:11.889Z,98871.00
2022-08-29T14:04:38.561Z,98872.00
2022-08-29T14:07:19.251Z,98870.00
2022-08-29T14:09:51.443Z,98858.00
2022-08-29T14:12:32.865Z,98874.00
2022-08-29T14:15:12.664Z,98853.00
2022-08-29T14:17:45.793Z,98849.00
2022-08-29T14:20:18.522Z,98843.00
2022-08-29T14:22:49.434Z,98851.00
2022-08-29T14:25:21.827Z,98844.00
2022-08-29T14:27:53.585Z,98840.00
2022-08-29T14:30:25.172Z,98842.00
2022-08-29T14:32:56.169Z,98841.00
2022-08-29T14:35:31.892Z,98845.00
2022-08-29T14:38:11.164Z,98833.00
2022-08-29T14:40:45.261Z,98833.00
2022-08-29T14:43:18.755Z,98832.00
2022-08-29T14:45:52.443Z,98826.00
2022-08-29T14:48:23.578Z,98825.00
2022-08-29T14:50:54.430Z,98830.00
2022-08-29T14:53:34.944Z,98821.00
2022-08-29T14:56:14.125Z,98823.00
2022-08-29T14:58:52.219Z,98821.00
2022-08-29T15:01:26.171Z,98818.00
2022-08-29T15:03:57.123Z,98818.00
2022-08-29T15:06:27.998Z,98817.00
2022-08-29T15:09:01.719Z,98807.00
2022-08-29T15:11:32.932Z,98811.00
2022-08-29T15:14:06.894Z,98818.00
2022-08-29T15:16:38.784Z,98818.00
2022-08-29T15:22:00.990Z,98811.00
2022-08-29T15:24:32.539Z,98809.00
2022-08-29T15:27:07.278Z,98799.00
2022-08-29T15:29:40.859Z,98804.00
2022-08-29T15:32:13.109Z,98802.00
2022-08-29T15:34:44.085Z,98799.00
2022-08-29T15:37:18.073Z,98803.00
2022-08-29T15:39:54.607Z,98794.00
2022-08-29T15:42:30.341Z,98780.00
2022-08-29T15:45:07.657Z,98777.00
2022-08-29T15:47:40.632Z,98777.00
2022-08-29T15:50:17.770Z,98772.00
2022-08-29T15:52:48.656Z,98773.00
2022-08-29T15:55:20.699Z,98776.00
2022-08-29T15:57:52.986Z,98777.00
2022-08-29T16:00:30.271Z,98772.00
2022-08-29T16:03:03.913Z,98776.00
2022-08-29T16:05:40.938Z,98781.00
2022-08-29T16:08:16.434Z,98774.00
2022-08-29T16:10:47.809Z,98776.00
2022-08-29T16:13:18.727Z,98773.00
2022-08-29T16:15:53.652Z,98774.00
2022-08-29T16:18:25.551Z,98774.00
2022-08-29T16:20:56.950Z,98768.00
2022-08-29T16:23:28.356Z,98765.00
2022-08-29T16:25:59.715Z,98767.00
2022-08-29T16:28:31.969Z,98755.00
2022-08-29T16:31:04.877Z,98759.00
2022-08-29T16:33:35.807Z,98759.00
2022-08-29T16:36:07.062Z,98755.00
2022-08-29T16:38:39.589Z,98756.00
2022-08-29T16:41:15.810Z,98759.00
2022-08-29T16:43:52.056Z,98756.00
2022-08-29T16:46:26.319Z,98758.00
2022-08-29T16:49:01.994Z,98755.00
2022-08-29T16:51:33.064Z,98759.00
2022-08-29T16:54:04.142Z,98759.00
2022-08-29T16:56:35.271Z,98758.00
2022-08-29T16:59:06.566Z,98756.00
2022-08-29T17:01:45.191Z,98760.00
2022-08-29T17:04:27.736Z,98760.00
2022-08-29T17:06:58.802Z,98758.00
2022-08-29T17:09:30.243Z,98759.00
2022-08-29T17:12:03.453Z,98754.00
2022-08-29T17:14:34.563Z,98757.00
2022-08-29T17:17:05.641Z,98753.00
2022-08-29T17:19:36.607Z,98770.00
2022-08-29T17:22:08.204Z,98772.00
2022-08-29T17:24:46.357Z,98758.00
2022-08-29T17:27:21.299Z,98763.00
2022-08-29T17:29:53.434Z,98769.00
2022-08-29T17:32:28.433Z,98768.00
2022-08-29T17:34:59.360Z,98760.00
2022-08-29T17:37:36.066Z,98768.00
2022-08-29T17:40:09.598Z,98765.00
2022-08-29T17:42:41.326Z,98767.00
2022-08-29T17:45:15.404Z,98762.00
2022-08-29T17:47:46.252Z,98765.00
2022-08-29T17:50:17.234Z,98760.00
2022-08-29T17:52:48.358Z,98764.00
2022-08-29T17:55:20.085Z,98762.00
2022-08-29T17:57:50.956Z,98774.00
2022-08-29T18:00:24.433Z,98783.00
2022-08-29T18:02:55.374Z,98779.00
2022-08-29T18:05:26.652Z,98778.00
2022-08-29T18:07:57.596Z,98788.00
2022-08-29T18:10:28.704Z,98783.00
2022-08-29T18:12:59.579Z,98794.00
2022-08-29T18:15:30.772Z,98795.00
2022-08-29T18:18:06.267Z,98803.00
2022-08-29T18:20:39.505Z,98808.00
2022-08-29T18:23:10.549Z,98801.00
2022-08-29T18:25:41.668Z,98798.00
2022-08-29T18:28:12.568Z,98803.00
2022-08-29T18:30:43.480Z,98815.00
2022-08-29T18:33:15.190Z,98805.00
2022-08-29T18:35:46.445Z,98812.00
2022-08-29T18:38:18.179Z,98808.00
2022-08-29T18:40:53.184Z,98807.00
2022-08-29T18:43:24.863Z,98817.00
2022-08-29T18:45:58.266Z,98818.00
2022-08-29T18:48:30.783Z,98815.00
2022-08-29T18:51:02.011Z,98825.00
2022-08-29T18:53:32.951Z,98827.00
2022-08-29T18:56:04.240Z,98830.00
2022-08-29T18:58:35.731Z,98826.00
2022-08-29T19:01:27.931Z,98840.00
2022-08-29T19:04:03.022Z,98835.00
2022-08-29T19:06:33.884Z,98844.00
2022-08-29T19:09:04.792Z,98844.00
2022-08-29T19:11:35.980Z,98847.00
2022-08-29T19:14:07.202Z,98851.00
2022-08-29T19:16:40.392Z,98848.00
2022-08-29T19:19:13.296Z,98851.00
2022-08-29T19:21:44.577Z,98851.00
2022-08-29T19:24:15.447Z,98849.00
2022-08-29T19:26:46.333Z,98843.00
2022-08-29T19:29:17.774Z,98845.00
2022-08-29T19:31:48.803Z,98838.00
2022-08-29T19:34:19.816Z,98839.00
2022-08-29T19:36:50.725Z,98841.00
2022-08-29T19:39:22.491Z,98847.00
2022-08-29T19:41:53.449Z,98844.00
2022-08-29T19:44:24.698Z,98846.00
2022-08-29T19:46:55.577Z,98845.00
2022-08-29T19:49:26.858Z,98854.00
2022-08-29T19:51:57.972Z,98854.00
2022-08-29T19:54:28.943Z,98852.00
2022-08-29T19:57:00.141Z,98855.00
2022-08-29T19:59:31.928Z,98861.00
2022-08-29T20:02:02.833Z,98867.00
2022-08-29T20:04:33.895Z,98862.00
2022-08-29T20:07:05.278Z,98862.00
2022-08-29T20:09:36.496Z,98866.00
2022-08-29T20:12:08.665Z,98865.00
2022-08-29T20:14:40.020Z,98873.00
2022-08-29T20:17:11.744Z,98883.00
2022-08-29T20:19:43.192Z,98881.00
2022-08-29T20:22:14.835Z,98882.00
2022-08-29T20:24:49.845Z,98886.00
2022-08-29T20:27:20.782Z,98895.00
2022-08-29T20:29:52.131Z,98872.00
2022-08-29T20:32:23.010Z,98877.00
2022-08-29T20:34:54.008Z,98879.00
2022-08-29T20:37:25.941Z,98884.00
2022-08-29T20:39:58.483Z,98895.00
2022-08-29T20:42:30.423Z,98898.00
2022-08-29T20:45:01.482Z,98908.00
2022-08-29T20:47:32.416Z,98894.00
2022-08-29T20:50:03.730Z,98895.00
2022-08-29T20:52:37.996Z,98895.00
2022-08-29T20:55:09.137Z,98901.00
2022-08-29T20:57:41.288Z,98901.00
2022-08-29T21:00:13.166Z,98891.00
2022-08-29T21:03:02.647Z,98895.00
2022-08-29T21:05:43.194Z,98900.00
2022-08-29T21:08:22.732Z,98894.00
2022-08-29T21:10:56.210Z,98901.00
2022-08-29T21:13:27.079Z,98900.00
2022-08-29T21:15:58.927Z,98913.00
2022-08-29T21:18:30.992Z,98906.00
2022-08-29T21:21:01.897Z,98906.00
2022-08-29T21:23:34.317Z,98915.00
2022-08-29T21:26:05.507Z,98913.00
2022-08-29T21:28:38.008Z,98909.00
2022-08-29T21:31:13.464Z,98918.00
2022-08-29T21:33:45.635Z,98933.00
2022-08-29T21:36:21.161Z,98918.00
2022-08-29T21:38:56.634Z,98923.00
2022-08-29T21:41:30.575Z,98915.00
2022-08-29T21:44:01.543Z,98912.00
2022-08-29T21:46:36.786Z,98914.00
2022-08-29T21:49:10.087Z,98908.00
2022-08-29T21:51:41.407Z,98906.00
2022-08-29T21:54:14.378Z,98920.00
2022-08-29T21:56:46.573Z,98921.00
2022-08-29T21:59:19.161Z,98917.00
2022-08-29T22:01:54.605Z,98917.00
2022-08-29T22:04:28.166Z,98917.00
2022-08-29T22:06:59.900Z,98913.00
2022-08-29T22:09:31.299Z,98908.00
2022-08-29T22:12:03.796Z,98912.00
2022-08-29T22:14:53.189Z,98897.00
2022-08-29T22:17:24.060Z,98898.00
2022-08-29T22:19:55.354Z,98915.00
2022-08-29T22:22:26.287Z,98910.00
2022-08-29T22:24:57.240Z,98904.00
2022-08-29T22:27:28.143Z,98909.00
2022-08-29T22:29:59.403Z,98921.00
2022-08-29T22:32:35.491Z,98915.00
2022-08-29T22:35:10.852Z,98905.00
2022-08-29T22:37:42.427Z,98919.00
2022-08-29T22:40:17.517Z,98914.00
2022-08-29T22:42:48.492Z,98913.00
2022-08-29T22:45:19.870Z,98910.00
2022-08-29T22:47:51.018Z,98908.00
2022-08-29T22:50:25.134Z,98912.00
2022-08-29T22:52:58.271Z,98917.00
2022-08-29T22:58:00.793Z,98915.00
2022-08-29T23:00:31.675Z,98918.00
2022-08-29T23:03:03.347Z,98914.00
2022-08-29T23:05:34.368Z,98905.00
2022-08-29T23:08:05.268Z,98913.00
2022-08-29T23:10:36.375Z,98920.00
2022-08-29T23:13:07.307Z,98907.00
2022-08-29T23:15:38.833Z,98905.00
2022-08-29T23:18:09.815Z,98911.00
2022-08-29T23:20:40.711Z,98910.00
2022-08-29T23:23:11.755Z,98920.00
2022-08-29T23:25:42.733Z,98913.00
2022-08-29T23:28:13.563Z,98905.00
2022-08-29T23:30:47.121Z,98907.00
2022-08-29T23:33:18.546Z,98910.00
2022-08-29T23:35:49.427Z,98907.00
2022-08-29T23:38:20.351Z,98910.00
2022-08-29T23:40:53.576Z,98902.00
2022-08-29T23:43:25.333Z,98913.00
2022-08-29T23:45:56.917Z,98917.00
2022-08-29T23:48:29.489Z,98916.00
2022-08-29T23:51:05.753Z,98910.00
2022-08-29T23:53:36.924Z,98908.00
2022-08-29T23:56:12.534Z,98906.00
2022-08-29T23:58:43.955Z,98929.00
